createdAt,value
2016-07-22T00:00:07.944Z,0
2016-07-22T00:01:22.902Z,0
2016-07-22T00:02:08.000Z,0
2016-07-22T00:03:22.958Z,0
2016-07-22T00:04:08.055Z,0
2016-07-22T00:05:23.016Z,0
2016-07-22T00:06:08.118Z,0
2016-07-22T00:07:08.139Z,0
2016-07-22T00:08:08.175Z,0
2016-07-22T00:09:23.128Z,0
2016-07-22T00:10:08.239Z,0
2016-07-22T00:11:08.260Z,0
2016-07-22T00:12:23.204Z,0
2016-07-22T00:13:08.312Z,0
2016-07-22T00:14:08.343Z,0
2016-07-22T00:15:08.369Z,0
2016-07-22T00:16:23.325Z,0
2016-07-22T00:17:08.426Z,0
2016-07-22T00:18:08.460Z,0
2016-07-22T00:19:09.182Z,0
2016-07-22T00:20:08.516Z,0
2016-07-22T00:21:08.536Z,0
2016-07-22T00:22:08.580Z,0
2016-07-22T00:23:08.597Z,0
2016-07-22T00:24:23.545Z,0
2016-07-22T00:25:23.577Z,0
2016-07-22T00:26:23.599Z,0
2016-07-22T00:27:38.557Z,0
2016-07-22T00:28:08.734Z,0
2016-07-22T00:29:08.764Z,0
2016-07-22T00:30:08.784Z,0
2016-07-22T00:31:08.812Z,0
2016-07-22T00:32:08.843Z,0
2016-07-22T00:33:08.872Z,0
2016-07-22T00:34:08.906Z,0
2016-07-22T00:35:08.925Z,0
2016-07-22T00:36:08.963Z,0
2016-07-22T00:37:08.981Z,0
2016-07-22T00:38:23.934Z,0
2016-07-22T00:39:38.894Z,0
2016-07-22T00:40:09.078Z,0
2016-07-22T00:41:24.066Z,0
2016-07-22T00:42:24.047Z,0
2016-07-22T00:43:09.200Z,0
2016-07-22T00:44:09.187Z,0
2016-07-22T00:45:09.210Z,0
2016-07-22T00:46:09.238Z,0
2016-07-22T00:47:09.325Z,0
2016-07-22T00:48:09.293Z,0
2016-07-22T00:49:09.321Z,0
2016-07-22T00:50:09.348Z,0
2016-07-22T00:51:09.368Z,0
2016-07-22T00:52:09.403Z,0
2016-07-22T00:53:09.430Z,0
2016-07-22T00:54:09.456Z,0
2016-07-22T00:55:09.486Z,0
2016-07-22T00:56:09.520Z,0
2016-07-22T00:57:09.546Z,0
2016-07-22T00:58:24.494Z,0
2016-07-22T00:59:24.518Z,0
2016-07-22T01:00:09.626Z,0
2016-07-22T01:01:09.659Z,0
2016-07-22T01:03:09.709Z,0
2016-07-22T01:04:09.740Z,0
2016-07-22T01:05:09.762Z,0
2016-07-22T01:06:09.793Z,0
2016-07-22T01:07:09.810Z,0
2016-07-22T01:08:10.545Z,0
2016-07-22T01:10:09.909Z,0
2016-07-22T01:11:09.924Z,0
2016-07-22T01:12:09.969Z,0
2016-07-22T01:13:39.838Z,0
2016-07-22T01:14:10.001Z,0
2016-07-22T01:15:24.967Z,0
2016-07-22T01:16:10.071Z,0
2016-07-22T01:17:25.026Z,0
2016-07-22T01:18:10.125Z,0
2016-07-22T01:19:10.146Z,0
2016-07-22T01:20:10.182Z,0
2016-07-22T01:21:25.129Z,0
2016-07-22T01:22:10.234Z,0
2016-07-22T01:23:10.271Z,0
2016-07-22T01:24:10.293Z,0
2016-07-22T01:25:10.314Z,0
2016-07-22T01:26:25.265Z,0
2016-07-22T01:27:40.224Z,0
2016-07-22T01:28:10.393Z,0
2016-07-22T01:29:10.431Z,0
2016-07-22T01:30:10.452Z,0
2016-07-22T01:31:25.405Z,0
2016-07-22T01:32:10.508Z,0
2016-07-22T01:33:10.536Z,0
2016-07-22T01:34:10.564Z,0
2016-07-22T01:35:25.518Z,0
2016-07-22T01:36:25.544Z,0
2016-07-22T01:37:10.650Z,0
2016-07-22T01:38:10.670Z,0
2016-07-22T01:39:10.700Z,0
2016-07-22T01:40:10.732Z,0
2016-07-22T01:41:10.753Z,0
2016-07-22T01:42:10.794Z,0
2016-07-22T01:43:10.807Z,0
2016-07-22T01:44:10.842Z,0
2016-07-22T01:45:10.870Z,0
2016-07-22T01:46:10.887Z,0
2016-07-22T01:47:25.894Z,0
2016-07-22T01:48:25.874Z,0
2016-07-22T01:49:10.977Z,0
2016-07-22T01:50:11.000Z,0
2016-07-22T01:51:11.029Z,0
2016-07-22T01:52:11.053Z,0
2016-07-22T01:53:11.086Z,0
2016-07-22T01:54:11.100Z,0
2016-07-22T01:55:11.135Z,0
2016-07-22T01:56:11.164Z,0
2016-07-22T01:57:11.205Z,0
2016-07-22T01:58:11.220Z,0
2016-07-22T01:59:26.172Z,0
2016-07-22T02:00:26.208Z,0
2016-07-22T02:01:11.305Z,0
2016-07-22T02:02:26.255Z,0
2016-07-22T02:03:26.299Z,0
2016-07-22T02:04:26.304Z,0
2016-07-22T02:05:11.403Z,0
2016-07-22T02:06:11.441Z,0
2016-07-22T02:07:11.467Z,0
2016-07-22T02:08:11.490Z,0
2016-07-22T02:09:26.444Z,0
2016-07-22T02:10:11.550Z,0
2016-07-22T02:11:26.499Z,0
2016-07-22T02:12:11.604Z,0
2016-07-22T02:13:11.634Z,0
2016-07-22T02:14:11.656Z,0
2016-07-22T02:15:26.611Z,0
2016-07-22T02:16:26.630Z,0
2016-07-22T02:18:11.783Z,0
2016-07-22T02:19:26.714Z,0
2016-07-22T02:20:11.822Z,0
2016-07-22T02:21:11.850Z,0
2016-07-22T02:22:11.877Z,0
2016-07-22T02:23:11.899Z,0
2016-07-22T02:24:11.944Z,0
2016-07-22T02:25:11.964Z,0
2016-07-22T02:26:11.976Z,0
2016-07-22T02:27:12.033Z,0
2016-07-22T02:28:12.030Z,0
2016-07-22T02:29:12.077Z,0
2016-07-22T02:30:27.012Z,0
2016-07-22T02:31:27.042Z,0
2016-07-22T02:32:27.075Z,0
2016-07-22T02:33:27.096Z,0
2016-07-22T02:34:27.826Z,0
2016-07-22T02:35:12.226Z,0
2016-07-22T02:36:12.253Z,0
2016-07-22T02:37:12.285Z,0
2016-07-22T02:38:12.307Z,0
2016-07-22T02:40:12.366Z,0
2016-07-22T02:41:12.393Z,0
2016-07-22T02:42:12.413Z,0
2016-07-22T02:43:12.447Z,0
2016-07-22T02:44:12.528Z,0
2016-07-22T02:45:12.501Z,0
2016-07-22T02:46:12.538Z,0
2016-07-22T02:47:12.550Z,0
2016-07-22T02:48:27.499Z,0
2016-07-22T02:49:12.610Z,0
2016-07-22T02:50:27.561Z,0
2016-07-22T02:52:12.692Z,0
2016-07-22T02:53:12.719Z,0
2016-07-22T02:54:12.742Z,0
2016-07-22T02:55:12.765Z,0
2016-07-22T02:56:12.796Z,0
2016-07-22T02:57:27.747Z,0
2016-07-22T02:58:12.865Z,0
2016-07-22T02:59:12.873Z,0
2016-07-22T03:00:12.900Z,0
2016-07-22T03:01:12.934Z,0
2016-07-22T03:02:12.957Z,0
2016-07-22T03:03:27.909Z,0
2016-07-22T03:04:13.027Z,5
2016-07-22T03:05:27.964Z,5
2016-07-22T03:06:27.991Z,5
2016-07-22T03:07:28.016Z,5
2016-07-22T03:08:13.123Z,5
2016-07-22T03:09:13.152Z,5
2016-07-22T03:10:13.177Z,5
2016-07-22T03:11:13.198Z,5
2016-07-22T03:12:13.232Z,5
2016-07-22T03:13:13.252Z,5
2016-07-22T03:14:13.290Z,10
2016-07-22T03:15:13.319Z,10
2016-07-22T03:16:13.331Z,10
2016-07-22T03:17:13.372Z,10
2016-07-22T03:18:13.387Z,10
2016-07-22T03:19:13.420Z,10
2016-07-22T03:20:28.373Z,15
2016-07-22T03:21:13.476Z,15
2016-07-22T03:22:28.431Z,15
2016-07-22T03:23:13.529Z,15
2016-07-22T03:24:13.559Z,15
2016-07-22T03:25:13.582Z,15
2016-07-22T03:26:13.609Z,20
2016-07-22T03:27:13.637Z,20
2016-07-22T03:28:13.666Z,20
2016-07-22T03:29:13.689Z,20
2016-07-22T03:30:13.711Z,25
2016-07-22T03:31:13.746Z,25
2016-07-22T03:32:13.771Z,25
2016-07-22T03:33:13.807Z,25
2016-07-22T03:34:28.752Z,30
2016-07-22T03:35:13.851Z,30
2016-07-22T03:36:13.886Z,30
2016-07-22T03:37:28.824Z,30
2016-07-22T03:39:43.807Z,35
2016-07-22T03:40:14.003Z,35
2016-07-22T03:41:28.940Z,40
2016-07-22T03:42:14.044Z,40
2016-07-22T03:43:14.065Z,40
2016-07-22T03:44:14.092Z,40
2016-07-22T03:45:14.128Z,45
2016-07-22T03:46:14.150Z,45
2016-07-22T03:48:14.192Z,50
2016-07-22T03:50:14.256Z,50
2016-07-22T03:51:29.202Z,55
2016-07-22T03:52:14.309Z,60
2016-07-22T03:53:14.332Z,55
2016-07-22T03:55:14.381Z,65
2016-07-22T03:56:14.425Z,60
2016-07-22T03:57:14.446Z,65
2016-07-22T03:58:14.485Z,65
2016-07-22T03:59:14.499Z,70
2016-07-22T04:00:14.520Z,65
2016-07-22T04:01:14.555Z,70
2016-07-22T04:02:14.574Z,70
2016-07-22T04:03:29.523Z,75
2016-07-22T04:04:14.632Z,75
2016-07-22T04:05:14.659Z,75
2016-07-22T04:06:29.611Z,75
2016-07-22T04:07:14.714Z,75
2016-07-22T04:08:29.659Z,80
2016-07-22T04:09:44.617Z,80
2016-07-22T04:10:14.795Z,80
2016-07-22T04:11:14.824Z,90
2016-07-22T04:12:14.850Z,105
2016-07-22T04:13:14.872Z,105
2016-07-22T04:14:14.901Z,105
2016-07-22T04:15:14.937Z,110
2016-07-22T04:16:14.947Z,110
2016-07-22T04:17:14.975Z,95
2016-07-22T04:18:15.009Z,95
2016-07-22T04:19:15.051Z,100
2016-07-22T04:20:15.067Z,105
2016-07-22T04:21:15.111Z,115
2016-07-22T04:22:44.971Z,120
2016-07-22T04:24:15.195Z,110
2016-07-22T04:25:30.125Z,120
2016-07-22T04:26:15.231Z,125
2016-07-22T04:27:15.258Z,120
2016-07-22T04:28:15.277Z,120
2016-07-22T04:29:15.307Z,120
2016-07-22T04:30:15.333Z,125
2016-07-22T04:31:15.364Z,135
2016-07-22T04:32:15.389Z,135
2016-07-22T04:33:15.412Z,125
2016-07-22T04:34:15.437Z,130
2016-07-22T04:35:15.467Z,140
2016-07-22T04:36:30.425Z,145
2016-07-22T04:37:30.453Z,140
2016-07-22T04:38:30.478Z,135
2016-07-22T04:39:15.579Z,140
2016-07-22T04:40:15.607Z,145
2016-07-22T04:41:30.569Z,145
2016-07-22T04:42:15.664Z,155
2016-07-22T04:43:15.692Z,160
2016-07-22T04:44:15.718Z,160
2016-07-22T04:45:15.732Z,165
2016-07-22T04:46:15.772Z,165
2016-07-22T04:47:15.817Z,165
2016-07-22T04:48:15.836Z,255
2016-07-22T04:49:15.898Z,495
2016-07-22T04:50:30.799Z,720
2016-07-22T04:51:15.902Z,785
2016-07-22T04:52:16.636Z,835
2016-07-22T04:53:15.959Z,860
2016-07-22T04:54:16.000Z,875
2016-07-22T04:55:16.021Z,870
2016-07-22T04:56:16.067Z,840
2016-07-22T04:57:30.997Z,890
2016-07-22T04:58:16.104Z,915
2016-07-22T04:59:16.133Z,920
2016-07-22T05:00:16.162Z,940
2016-07-22T05:01:16.196Z,970
2016-07-22T05:02:31.149Z,955
2016-07-22T05:03:16.258Z,945
2016-07-22T05:04:16.287Z,975
2016-07-22T05:05:16.322Z,990
2016-07-22T05:06:31.277Z,985
2016-07-22T05:07:16.374Z,1025
2016-07-22T05:08:16.407Z,1020
2016-07-22T05:09:31.367Z,965
2016-07-22T05:10:16.476Z,1005
2016-07-22T05:11:16.526Z,1045
2016-07-22T05:12:31.467Z,1060
2016-07-22T05:13:16.567Z,1045
2016-07-22T05:14:16.598Z,1050
2016-07-22T05:15:16.636Z,1085
2016-07-22T05:16:16.680Z,1080
2016-07-22T05:17:16.705Z,1100
2016-07-22T05:18:16.729Z,1120
2016-07-22T05:19:16.773Z,1125
2016-07-22T05:20:16.788Z,1110
2016-07-22T05:21:16.849Z,1095
2016-07-22T05:22:31.783Z,1145
2016-07-22T05:23:16.903Z,1110
2016-07-22T05:24:31.848Z,1125
2016-07-22T05:25:16.954Z,1150
2016-07-22T05:26:16.997Z,1120
2016-07-22T05:27:17.031Z,1100
2016-07-22T05:28:17.047Z,1140
2016-07-22T05:29:17.092Z,1190
2016-07-22T05:30:17.136Z,1195
2016-07-22T05:31:17.157Z,1210
2016-07-22T05:32:32.124Z,1215
2016-07-22T05:33:17.223Z,1195
2016-07-22T05:34:17.256Z,1205
2016-07-22T05:35:17.302Z,1240
2016-07-22T05:36:32.268Z,1225
2016-07-22T05:37:17.359Z,1235
2016-07-22T05:38:32.326Z,1255
2016-07-22T05:39:17.433Z,1255
2016-07-22T05:40:17.466Z,1245
2016-07-22T05:41:32.424Z,1225
2016-07-22T05:42:32.458Z,1180
2016-07-22T05:43:17.559Z,1165
2016-07-22T05:45:17.732Z,1235
2016-07-22T05:46:32.599Z,1235
2016-07-22T05:47:17.703Z,1210
2016-07-22T05:48:17.728Z,1240
2016-07-22T05:49:17.778Z,1205
2016-07-22T05:50:17.808Z,1195
2016-07-22T05:52:17.875Z,1260
2016-07-22T05:53:17.899Z,1265
2016-07-22T05:55:32.956Z,1295
2016-07-22T05:56:18.012Z,1300
2016-07-22T05:57:18.099Z,1310
2016-07-22T05:58:33.009Z,1290
2016-07-22T05:59:18.117Z,1275
2016-07-22T06:00:33.094Z,1260
2016-07-22T06:01:33.112Z,1270
2016-07-22T06:02:18.222Z,1280
2016-07-22T06:03:33.185Z,1285
2016-07-22T06:04:18.296Z,1250
2016-07-22T06:05:18.322Z,1230
2016-07-22T06:06:18.358Z,1245
2016-07-22T06:07:18.394Z,1285
2016-07-22T06:08:33.363Z,1290
2016-07-22T06:09:18.474Z,1280
2016-07-22T06:10:18.508Z,1300
2016-07-22T06:12:33.503Z,1340
2016-07-22T06:13:18.614Z,1335
2016-07-22T06:14:18.642Z,1315
2016-07-22T06:15:18.683Z,1285
2016-07-22T06:16:33.636Z,1350
2016-07-22T06:17:18.747Z,1340
2016-07-22T06:18:33.711Z,1340
2016-07-22T06:19:18.834Z,1320
2016-07-22T06:20:18.862Z,1260
2016-07-22T06:21:18.895Z,1270
2016-07-22T06:23:18.982Z,1285
2016-07-22T06:24:18.995Z,1260
2016-07-22T06:25:19.041Z,1280
2016-07-22T06:26:19.077Z,1260
2016-07-22T06:27:19.116Z,1245
2016-07-22T06:28:34.079Z,1260
2016-07-22T06:29:19.187Z,1280
2016-07-22T06:30:19.229Z,1265
2016-07-22T06:31:19.258Z,1265
2016-07-22T06:32:34.219Z,1250
2016-07-22T06:33:19.332Z,1255
2016-07-22T06:34:19.366Z,1270
2016-07-22T06:35:19.403Z,1270
2016-07-22T06:36:19.441Z,1265
2016-07-22T06:37:19.475Z,1300
2016-07-22T06:38:19.507Z,1275
2016-07-22T06:39:19.550Z,1220
2016-07-22T06:40:19.583Z,1200
2016-07-22T06:41:19.618Z,1220
2016-07-22T06:42:34.581Z,1205
2016-07-22T06:43:34.631Z,1225
2016-07-22T06:44:19.727Z,1210
2016-07-22T06:46:19.810Z,1200
2016-07-22T06:47:34.773Z,1185
2016-07-22T06:48:19.878Z,1200
2016-07-22T06:49:20.018Z,1180
2016-07-22T06:50:19.945Z,1110
2016-07-22T06:51:19.997Z,1070
2016-07-22T06:52:20.029Z,1095
2016-07-22T06:53:20.061Z,1110
2016-07-22T06:55:20.199Z,1035
2016-07-22T06:56:20.169Z,1015
2016-07-22T06:57:20.261Z,970
2016-07-22T06:58:35.166Z,960
2016-07-22T06:59:20.284Z,935
2016-07-22T07:00:20.318Z,940
2016-07-22T07:01:20.364Z,870
2016-07-22T07:02:20.399Z,835
2016-07-22T07:03:21.129Z,830
2016-07-22T07:04:20.473Z,790
2016-07-22T07:05:35.424Z,740
2016-07-22T07:06:20.539Z,710
2016-07-22T07:07:20.574Z,700
2016-07-22T07:08:20.618Z,675
2016-07-22T07:09:20.647Z,640
2016-07-22T07:10:20.693Z,610
2016-07-22T07:11:35.652Z,590
2016-07-22T07:13:35.739Z,605
2016-07-22T07:14:35.766Z,615
2016-07-22T07:15:20.881Z,630
2016-07-22T07:17:20.952Z,645
2016-07-22T07:18:20.994Z,630
2016-07-22T07:19:35.948Z,715
2016-07-22T07:20:21.062Z,800
2016-07-22T07:21:36.029Z,1165
2016-07-22T07:22:50.986Z,1820
2016-07-22T07:23:21.166Z,1900
2016-07-22T07:24:21.207Z,1500
2016-07-22T07:25:36.172Z,1185
2016-07-22T07:26:21.281Z,1110
2016-07-22T07:27:36.246Z,1125
2016-07-22T07:28:21.359Z,1195
2016-07-22T07:29:21.401Z,1180
2016-07-22T07:30:21.440Z,1125
2016-07-22T07:31:36.406Z,1145
2016-07-22T07:32:21.504Z,1155
2016-07-22T07:33:21.541Z,1175
2016-07-22T07:34:21.589Z,1195
2016-07-22T07:35:36.545Z,1165
2016-07-22T07:36:36.586Z,1050
2016-07-22T07:37:21.692Z,1025
2016-07-22T07:38:36.661Z,1080
2016-07-22T07:39:21.772Z,1070
2016-07-22T07:40:21.812Z,1060
2016-07-22T07:41:22.538Z,1060
2016-07-22T07:42:21.883Z,1055
2016-07-22T07:43:21.924Z,1045
2016-07-22T07:44:21.949Z,990
2016-07-22T07:45:21.987Z,970
2016-07-22T07:46:22.029Z,975
2016-07-22T07:47:22.060Z,985
2016-07-22T07:48:37.034Z,980
2016-07-22T07:49:22.134Z,990
2016-07-22T07:50:22.174Z,1000
2016-07-22T07:51:37.139Z,975
2016-07-22T07:52:22.257Z,990
2016-07-22T07:53:22.288Z,1015
2016-07-22T07:54:22.325Z,1015
2016-07-22T07:55:22.419Z,1035
2016-07-22T07:56:37.329Z,985
2016-07-22T07:57:22.438Z,945
2016-07-22T07:58:22.480Z,945
2016-07-22T07:59:22.513Z,930
2016-07-22T08:00:22.567Z,875
2016-07-22T08:01:22.592Z,875
2016-07-22T08:02:22.635Z,785
2016-07-22T08:03:22.661Z,850
2016-07-22T08:04:22.697Z,835
2016-07-22T08:05:22.729Z,855
2016-07-22T08:06:22.771Z,835
2016-07-22T08:07:37.729Z,830
2016-07-22T08:08:22.846Z,825
2016-07-22T08:09:22.883Z,810
2016-07-22T08:10:22.916Z,790
2016-07-22T08:11:22.952Z,685
2016-07-22T08:12:22.987Z,645
2016-07-22T08:14:37.994Z,385
2016-07-22T08:15:23.100Z,340
2016-07-22T08:16:23.149Z,390
2016-07-22T08:17:23.186Z,405
2016-07-22T08:18:23.207Z,345
2016-07-22T08:19:38.178Z,295
2016-07-22T08:21:23.323Z,415
2016-07-22T08:22:53.213Z,460
2016-07-22T08:23:23.395Z,505
2016-07-22T08:24:38.363Z,560
2016-07-22T08:25:23.469Z,560
2016-07-22T08:26:23.503Z,540
2016-07-22T08:28:23.566Z,575
2016-07-22T08:29:23.603Z,505
2016-07-22T08:30:23.637Z,430
2016-07-22T08:31:23.673Z,445
2016-07-22T08:32:23.708Z,495
2016-07-22T08:33:38.684Z,445
2016-07-22T08:35:38.743Z,415
2016-07-22T08:36:24.549Z,435
2016-07-22T08:37:23.886Z,540
2016-07-22T08:38:23.927Z,540
2016-07-22T08:40:23.983Z,490
2016-07-22T08:41:24.027Z,470
2016-07-22T08:42:24.053Z,475
2016-07-22T08:43:24.095Z,480
2016-07-22T08:44:24.823Z,490
2016-07-22T08:46:24.208Z,475
2016-07-22T08:47:24.234Z,470
2016-07-22T08:48:24.277Z,490
2016-07-22T08:49:24.300Z,510
2016-07-22T08:50:24.336Z,520
2016-07-22T08:52:24.460Z,505
2016-07-22T08:53:24.437Z,500
2016-07-22T08:54:54.331Z,485
2016-07-22T08:55:24.515Z,495
2016-07-22T08:56:24.557Z,440
2016-07-22T08:57:24.581Z,440
2016-07-22T08:58:24.615Z,450
2016-07-22T08:59:24.654Z,455
2016-07-22T09:00:39.615Z,465
2016-07-22T09:01:39.649Z,460
2016-07-22T09:03:24.802Z,465
2016-07-22T09:04:24.834Z,470
2016-07-22T09:05:24.867Z,475
2016-07-22T09:06:24.900Z,465
2016-07-22T09:07:39.864Z,465
2016-07-22T09:08:39.898Z,475
2016-07-22T09:09:25.008Z,475
2016-07-22T09:10:54.894Z,465
2016-07-22T09:12:25.111Z,465
2016-07-22T09:13:25.144Z,470
2016-07-22T09:14:25.178Z,455
2016-07-22T09:16:25.931Z,435
2016-07-22T09:17:25.292Z,430
2016-07-22T09:18:25.320Z,415
2016-07-22T09:19:25.365Z,410
2016-07-22T09:20:40.320Z,405
2016-07-22T09:21:25.423Z,400
2016-07-22T09:22:25.456Z,400
2016-07-22T09:23:40.412Z,395
2016-07-22T09:24:40.459Z,375
2016-07-22T09:25:26.273Z,365
2016-07-22T09:26:55.451Z,360
2016-07-22T09:27:25.641Z,360
2016-07-22T09:28:25.674Z,355
2016-07-22T09:29:25.698Z,355
2016-07-22T09:30:25.734Z,365
2016-07-22T09:32:25.799Z,365
2016-07-22T09:33:25.842Z,360
2016-07-22T09:34:25.888Z,360
2016-07-22T09:35:25.918Z,355
2016-07-22T09:36:25.945Z,355
2016-07-22T09:37:26.672Z,355
2016-07-22T09:38:40.943Z,350
2016-07-22T09:39:26.056Z,350
2016-07-22T09:40:26.081Z,345
2016-07-22T09:41:26.120Z,345
2016-07-22T09:42:41.081Z,350
2016-07-22T09:43:41.107Z,340
2016-07-22T09:44:26.225Z,340
2016-07-22T09:45:26.259Z,335
2016-07-22T09:46:26.292Z,330
2016-07-22T09:47:26.343Z,330
2016-07-22T09:48:26.353Z,325
2016-07-22T09:49:26.405Z,325
2016-07-22T09:50:26.438Z,330
2016-07-22T09:51:26.459Z,330
2016-07-22T09:52:26.494Z,325
2016-07-22T09:53:41.463Z,325
2016-07-22T09:54:26.572Z,320
2016-07-22T09:55:26.613Z,320
2016-07-22T09:56:26.627Z,315
2016-07-22T09:57:41.601Z,315
2016-07-22T09:58:26.708Z,315
2016-07-22T09:59:26.739Z,310
2016-07-22T10:00:26.771Z,310
2016-07-22T10:01:26.806Z,310
2016-07-22T10:02:26.842Z,305
2016-07-22T10:03:26.885Z,285
2016-07-22T10:04:26.908Z,280
2016-07-22T10:05:27.056Z,280
2016-07-22T10:06:26.983Z,285
2016-07-22T10:07:27.013Z,290
2016-07-22T10:08:27.056Z,285
2016-07-22T10:09:27.084Z,285
2016-07-22T10:10:42.048Z,285
2016-07-22T10:11:27.142Z,285
2016-07-22T10:13:42.150Z,285
2016-07-22T10:14:27.260Z,280
2016-07-22T10:16:27.321Z,280
2016-07-22T10:17:27.357Z,280
2016-07-22T10:18:27.392Z,280
2016-07-22T10:19:27.434Z,280
2016-07-22T10:21:27.500Z,280
2016-07-22T10:22:27.521Z,280
2016-07-22T10:23:27.564Z,280
2016-07-22T10:24:27.594Z,275
2016-07-22T10:25:27.630Z,275
2016-07-22T10:26:27.668Z,275
2016-07-22T10:27:27.702Z,270
2016-07-22T10:28:27.724Z,270
2016-07-22T10:30:27.798Z,260
2016-07-22T10:31:27.827Z,265
2016-07-22T10:32:27.864Z,265
2016-07-22T10:33:27.899Z,265
2016-07-22T10:34:27.939Z,265
2016-07-22T10:35:27.976Z,260
2016-07-22T10:36:28.000Z,255
2016-07-22T10:37:28.031Z,255
2016-07-22T10:38:28.067Z,255
2016-07-22T10:39:28.104Z,255
2016-07-22T10:40:28.130Z,255
2016-07-22T10:41:28.165Z,250
2016-07-22T10:42:43.134Z,255
2016-07-22T10:43:43.162Z,255
2016-07-22T10:44:28.265Z,255
2016-07-22T10:45:43.237Z,250
2016-07-22T10:46:28.341Z,250
2016-07-22T10:47:43.296Z,250
2016-07-22T10:48:28.399Z,250
2016-07-22T10:49:29.135Z,250
2016-07-22T10:50:29.172Z,245
2016-07-22T10:51:28.506Z,230
2016-07-22T10:52:28.550Z,240
2016-07-22T10:54:28.603Z,240
2016-07-22T10:55:28.631Z,240
2016-07-22T10:56:43.595Z,240
2016-07-22T10:57:43.629Z,240
2016-07-22T10:58:28.739Z,235
2016-07-22T10:59:28.764Z,235
2016-07-22T11:00:28.803Z,235
2016-07-22T11:01:43.752Z,230
2016-07-22T11:02:28.872Z,225
2016-07-22T11:04:29.641Z,220
2016-07-22T11:06:29.007Z,205
2016-07-22T11:07:29.034Z,205
2016-07-22T11:08:29.816Z,210
2016-07-22T11:10:29.183Z,220
2016-07-22T11:11:29.160Z,220
2016-07-22T11:12:29.192Z,215
2016-07-22T11:13:44.152Z,210
2016-07-22T11:14:44.189Z,215
2016-07-22T11:15:29.303Z,220
2016-07-22T11:16:29.320Z,220
2016-07-22T11:17:44.282Z,220
2016-07-22T11:18:44.315Z,220
2016-07-22T11:19:29.428Z,220
2016-07-22T11:20:29.459Z,215
2016-07-22T11:22:29.522Z,220
2016-07-22T11:23:30.250Z,220
2016-07-22T11:24:29.593Z,215
2016-07-22T11:25:29.628Z,215
2016-07-22T11:26:29.659Z,215
2016-07-22T11:27:30.376Z,215
2016-07-22T11:28:44.640Z,215
2016-07-22T11:29:29.751Z,210
2016-07-22T11:31:59.670Z,205
2016-07-22T11:32:44.777Z,205
2016-07-22T11:34:59.766Z,200
2016-07-22T11:35:29.947Z,200
2016-07-22T11:36:29.982Z,195
2016-07-22T11:37:30.009Z,195
2016-07-22T11:38:30.042Z,190
2016-07-22T11:39:45.002Z,190
2016-07-22T11:40:30.105Z,190
2016-07-22T11:41:30.145Z,190
2016-07-22T11:42:30.172Z,180
2016-07-22T11:43:30.197Z,180
2016-07-22T11:44:45.167Z,180
2016-07-22T11:45:30.266Z,180
2016-07-22T11:46:30.308Z,175
2016-07-22T11:47:45.260Z,175
2016-07-22T11:48:31.062Z,175
2016-07-22T11:49:30.404Z,175
2016-07-22T11:50:30.435Z,170
2016-07-22T11:51:30.463Z,170
2016-07-22T11:52:30.494Z,170
2016-07-22T11:53:30.532Z,170
2016-07-22T11:54:30.572Z,170
2016-07-22T11:55:30.586Z,170
2016-07-22T11:56:30.633Z,165
2016-07-22T11:57:30.651Z,170
2016-07-22T11:58:30.688Z,165
2016-07-22T11:59:30.722Z,165
2016-07-22T12:00:30.747Z,165
2016-07-22T12:01:30.788Z,165
2016-07-22T12:02:30.821Z,165
2016-07-22T12:03:30.857Z,165
2016-07-22T12:04:45.809Z,165
2016-07-22T12:05:30.917Z,165
2016-07-22T12:06:30.944Z,165
2016-07-22T12:07:31.042Z,170
2016-07-22T12:08:31.010Z,170
2016-07-22T12:09:31.041Z,170
2016-07-22T12:10:31.126Z,170
2016-07-22T12:11:31.107Z,170
2016-07-22T12:12:31.143Z,170
2016-07-22T12:13:31.189Z,170
2016-07-22T12:14:31.201Z,170
2016-07-22T12:15:31.237Z,170
2016-07-22T12:17:31.303Z,175
2016-07-22T12:18:46.250Z,170
2016-07-22T12:19:31.362Z,170
2016-07-22T12:20:46.319Z,170
2016-07-22T12:21:31.433Z,170
2016-07-22T12:22:32.159Z,170
2016-07-22T12:23:31.484Z,170
2016-07-22T12:24:31.540Z,170
2016-07-22T12:25:31.561Z,165
2016-07-22T12:26:31.584Z,170
2016-07-22T12:27:46.549Z,170
2016-07-22T12:28:31.650Z,170
2016-07-22T12:29:31.693Z,170
2016-07-22T12:30:31.709Z,170
2016-07-22T12:31:31.743Z,170
2016-07-22T12:33:31.815Z,170
2016-07-22T12:34:31.861Z,170
2016-07-22T12:35:31.870Z,170
2016-07-22T12:37:01.759Z,170
2016-07-22T12:38:01.791Z,170
2016-07-22T12:38:31.978Z,170
2016-07-22T12:39:32.003Z,165
2016-07-22T12:40:46.962Z,165
2016-07-22T12:41:32.086Z,165
2016-07-22T12:42:32.107Z,170
2016-07-22T12:43:32.128Z,165
2016-07-22T12:44:32.162Z,165
2016-07-22T12:45:32.191Z,155
2016-07-22T12:46:32.229Z,160
2016-07-22T12:47:32.261Z,155
2016-07-22T12:48:32.299Z,165
2016-07-22T12:49:32.325Z,165
2016-07-22T12:51:02.223Z,170
2016-07-22T12:51:32.382Z,170
2016-07-22T12:52:47.358Z,170
2016-07-22T12:53:32.455Z,170
2016-07-22T12:54:47.402Z,170
2016-07-22T12:56:32.545Z,170
2016-07-22T12:57:32.588Z,170
2016-07-22T12:58:32.613Z,170
2016-07-22T12:59:32.629Z,170
2016-07-22T13:00:32.678Z,170
2016-07-22T13:01:32.728Z,170
2016-07-22T13:02:32.730Z,170
2016-07-22T13:03:32.774Z,170
2016-07-22T13:04:33.498Z,170
2016-07-22T13:06:02.688Z,170
2016-07-22T13:06:32.859Z,170
2016-07-22T13:07:47.819Z,170
2016-07-22T13:08:33.227Z,170
2016-07-22T13:09:32.958Z,170
2016-07-22T13:10:33.730Z,175
2016-07-22T13:11:33.022Z,175
2016-07-22T13:12:33.055Z,175
2016-07-22T13:13:33.143Z,175
2016-07-22T13:14:33.111Z,175
2016-07-22T13:15:33.194Z,175
2016-07-22T13:16:33.177Z,175
2016-07-22T13:17:48.131Z,175
2016-07-22T13:18:48.180Z,175
2016-07-22T13:19:33.274Z,180
2016-07-22T13:20:33.321Z,175
2016-07-22T13:21:33.328Z,175
2016-07-22T13:22:33.372Z,175
2016-07-22T13:23:33.405Z,170
2016-07-22T13:24:33.438Z,175
2016-07-22T13:25:33.462Z,175
2016-07-22T13:26:33.494Z,175
2016-07-22T13:27:33.526Z,175
2016-07-22T13:29:33.590Z,170
2016-07-22T13:30:34.314Z,170
2016-07-22T13:31:33.662Z,170
2016-07-22T13:32:33.695Z,170
2016-07-22T13:33:48.638Z,170
2016-07-22T13:34:34.445Z,170
2016-07-22T13:35:48.711Z,170
2016-07-22T13:36:33.826Z,170
2016-07-22T13:37:33.849Z,170
2016-07-22T13:38:33.878Z,170
2016-07-22T13:39:48.829Z,170
2016-07-22T13:40:33.933Z,175
2016-07-22T13:41:34.675Z,175
2016-07-22T13:42:34.008Z,175
2016-07-22T13:43:34.031Z,175
2016-07-22T13:44:34.063Z,175
2016-07-22T13:45:34.106Z,175
2016-07-22T13:46:34.127Z,175
2016-07-22T13:47:34.883Z,175
2016-07-22T13:48:34.193Z,175
2016-07-22T13:49:34.225Z,175
2016-07-22T13:50:34.249Z,175
2016-07-22T13:51:34.286Z,180
2016-07-22T13:52:34.323Z,180
2016-07-22T13:53:34.346Z,175
2016-07-22T13:55:49.335Z,180
2016-07-22T13:56:34.446Z,175
2016-07-22T13:57:49.405Z,175
2016-07-22T13:58:34.509Z,180
2016-07-22T13:59:49.469Z,175
2016-07-22T14:00:34.575Z,175
2016-07-22T14:01:34.608Z,175
2016-07-22T14:02:34.630Z,175
2016-07-22T14:04:34.695Z,175
2016-07-22T14:05:34.732Z,175
2016-07-22T14:06:49.686Z,175
2016-07-22T14:07:49.721Z,175
2016-07-22T14:08:34.818Z,175
2016-07-22T14:09:34.857Z,175
2016-07-22T14:10:34.885Z,175
2016-07-22T14:12:04.772Z,175
2016-07-22T14:13:49.913Z,175
2016-07-22T14:14:35.016Z,175
2016-07-22T14:15:35.199Z,175
2016-07-22T14:16:35.077Z,175
2016-07-22T14:17:35.109Z,175
2016-07-22T14:18:35.141Z,175
2016-07-22T14:19:35.180Z,175
2016-07-22T14:20:35.208Z,175
2016-07-22T14:21:35.225Z,175
2016-07-22T14:22:35.265Z,175
2016-07-22T14:23:35.290Z,175
2016-07-22T14:24:35.340Z,175
2016-07-22T14:25:35.359Z,175
2016-07-22T14:26:50.315Z,170
2016-07-22T14:27:50.356Z,175
2016-07-22T14:28:50.385Z,160
2016-07-22T14:29:35.489Z,150
2016-07-22T14:30:36.203Z,145
2016-07-22T14:31:35.551Z,140
2016-07-22T14:32:35.581Z,150
2016-07-22T14:33:35.620Z,155
2016-07-22T14:35:35.675Z,155
2016-07-22T14:36:35.700Z,160
2016-07-22T14:37:50.666Z,165
2016-07-22T14:38:35.770Z,170
2016-07-22T14:39:35.797Z,170
2016-07-22T14:40:35.846Z,170
2016-07-22T14:41:35.875Z,170
2016-07-22T14:42:50.839Z,160
2016-07-22T14:43:35.923Z,160
2016-07-22T14:44:35.953Z,160
2016-07-22T14:46:36.016Z,170